createdAt,value
2019-02-06T00:00:38.944Z,16.00
2019-02-06T00:03:08.373Z,15.85
2019-02-06T00:05:37.404Z,17.20
2019-02-06T00:08:06.524Z,15.48
2019-02-06T00:10:35.670Z,13.90
2019-02-06T00:13:04.745Z,15.78
2019-02-06T00:15:33.813Z,16.05
2019-02-06T00:18:02.788Z,15.68
2019-02-06T00:20:32.080Z,16.37
2019-02-06T00:23:01.012Z,16.12
2019-02-06T00:25:29.929Z,15.32
2019-02-06T00:27:58.913Z,16.20
2019-02-06T00:30:28.228Z,18.25
2019-02-06T00:32:57.229Z,17.42
2019-02-06T00:35:26.756Z,17.37
2019-02-06T00:37:55.737Z,16.77
2019-02-06T00:40:24.700Z,14.38
2019-02-06T00:42:53.607Z,13.88
2019-02-06T00:45:23.092Z,12.88
2019-02-06T00:47:52.012Z,15.98
2019-02-06T00:50:21.332Z,15.03
2019-02-06T00:52:50.300Z,16.05
2019-02-06T00:55:19.309Z,14.63
2019-02-06T00:57:48.273Z,15.43
2019-02-06T01:00:21.630Z,14.60
2019-02-06T01:02:51.566Z,15.70
2019-02-06T01:05:21.360Z,16.93
2019-02-06T01:07:50.581Z,17.00
2019-02-06T01:10:19.787Z,18.75
2019-02-06T01:12:48.872Z,17.87
2019-02-06T01:15:17.736Z,19.07
2019-02-06T01:17:46.652Z,18.37
2019-02-06T01:20:16.757Z,16.50
2019-02-06T01:22:45.640Z,15.65
2019-02-06T01:25:15.700Z,16.80
2019-02-06T01:27:45.002Z,16.67
2019-02-06T01:30:17.220Z,17.45
2019-02-06T01:32:46.233Z,16.37
2019-02-06T01:35:15.951Z,17.50
2019-02-06T01:37:44.920Z,18.82
2019-02-06T01:40:15.648Z,17.55
2019-02-06T01:42:44.756Z,17.23
2019-02-06T01:45:15.394Z,17.30
2019-02-06T01:47:44.352Z,18.32
2019-02-06T01:50:15.400Z,16.67
2019-02-06T01:52:44.756Z,18.67
2019-02-06T01:55:13.812Z,20.00
2019-02-06T01:57:43.019Z,19.65
2019-02-06T02:00:17.479Z,18.62
2019-02-06T02:02:46.577Z,17.27
2019-02-06T02:05:18.276Z,19.10
2019-02-06T02:07:48.170Z,18.35
2019-02-06T02:10:17.781Z,18.00
2019-02-06T02:12:47.438Z,18.48
2019-02-06T02:15:16.652Z,18.20
2019-02-06T02:17:46.016Z,17.20
2019-02-06T02:20:17.276Z,19.27
2019-02-06T02:22:46.336Z,18.37
2019-02-06T02:25:15.412Z,18.67
2019-02-06T02:27:44.404Z,18.30
2019-02-06T02:30:20.922Z,19.07
2019-02-06T02:32:50.558Z,20.02
2019-02-06T02:35:19.536Z,19.30
2019-02-06T02:37:48.546Z,18.75
2019-02-06T02:40:17.527Z,17.77
2019-02-06T02:42:46.523Z,18.30
2019-02-06T02:45:17.091Z,16.52
2019-02-06T02:47:46.673Z,17.75
2019-02-06T02:50:15.946Z,18.12
2019-02-06T02:52:45.037Z,17.80
2019-02-06T02:55:14.797Z,18.85
2019-02-06T02:57:44.001Z,19.40
2019-02-06T03:00:16.293Z,20.65
2019-02-06T03:02:57.248Z,20.45
2019-02-06T03:05:28.944Z,19.23
2019-02-06T03:07:57.917Z,19.57
2019-02-06T03:10:26.928Z,19.00
2019-02-06T03:12:55.859Z,21.05
2019-02-06T03:15:25.281Z,18.35
2019-02-06T03:17:54.164Z,21.97
2019-02-06T03:20:23.160Z,20.27
2019-02-06T03:22:52.320Z,19.27
2019-02-06T03:25:21.316Z,20.75
2019-02-06T03:27:50.308Z,20.92
2019-02-06T03:30:20.037Z,18.52
2019-02-06T03:32:49.403Z,19.05
2019-02-06T03:35:18.485Z,20.57
2019-02-06T03:37:47.372Z,20.12
2019-02-06T03:40:16.831Z,18.70
2019-02-06T03:42:46.092Z,20.10
2019-02-06T03:45:15.742Z,20.92
2019-02-06T03:47:44.698Z,18.30
2019-02-06T03:50:15.361Z,18.45
2019-02-06T03:52:44.540Z,18.70
2019-02-06T03:55:14.144Z,19.05
2019-02-06T03:57:43.248Z,18.70
2019-02-06T04:00:14.334Z,19.35
2019-02-06T04:02:43.293Z,19.17
2019-02-06T04:05:12.588Z,18.42
2019-02-06T04:07:41.582Z,19.00
2019-02-06T04:10:12.416Z,17.67
2019-02-06T04:12:41.427Z,18.30
2019-02-06T04:15:11.122Z,19.25
2019-02-06T04:17:40.088Z,18.70
2019-02-06T04:20:10.249Z,18.73
2019-02-06T04:22:39.212Z,19.05
2019-02-06T04:25:08.808Z,19.48
2019-02-06T04:27:37.803Z,18.80
2019-02-06T04:30:07.942Z,20.08
2019-02-06T04:32:36.855Z,18.65
2019-02-06T04:35:07.893Z,19.17
2019-02-06T04:37:36.885Z,20.17
2019-02-06T04:40:09.526Z,18.85
2019-02-06T04:42:38.512Z,18.98
2019-02-06T04:45:08.676Z,21.00
2019-02-06T04:47:37.484Z,22.85
2019-02-06T04:50:07.664Z,20.70
2019-02-06T04:52:36.541Z,18.92
2019-02-06T04:55:07.416Z,23.62
2019-02-06T04:57:36.379Z,24.82
2019-02-06T05:00:10.292Z,25.85
2019-02-06T05:02:39.276Z,21.62
2019-02-06T05:05:08.298Z,20.50
2019-02-06T05:07:37.278Z,22.60
2019-02-06T05:10:07.512Z,20.23
2019-02-06T05:12:36.476Z,18.87
2019-02-06T05:15:06.583Z,21.60
2019-02-06T05:17:35.464Z,19.45
2019-02-06T05:20:09.596Z,19.35
2019-02-06T05:22:38.488Z,19.25
2019-02-06T05:25:07.704Z,18.62
2019-02-06T05:27:36.669Z,19.10
2019-02-06T05:30:06.568Z,20.12
2019-02-06T05:32:35.660Z,19.82
2019-02-06T05:35:04.834Z,20.75
2019-02-06T05:37:33.724Z,18.57
2019-02-06T05:40:02.700Z,18.77
2019-02-06T05:42:31.509Z,18.90
2019-02-06T05:45:00.808Z,18.87
2019-02-06T05:47:29.689Z,17.70
2019-02-06T05:49:58.569Z,17.95
2019-02-06T05:52:27.452Z,19.90
2019-02-06T05:54:56.449Z,18.57
2019-02-06T05:57:25.348Z,17.90
2019-02-06T05:59:54.330Z,19.98
2019-02-06T06:02:24.298Z,20.60
2019-02-06T06:04:53.197Z,21.33
2019-02-06T06:07:22.200Z,20.82
2019-02-06T06:09:51.219Z,20.37
2019-02-06T06:12:20.276Z,21.23
2019-02-06T06:14:49.165Z,20.72
2019-02-06T06:17:18.067Z,19.80
2019-02-06T06:19:46.976Z,21.40
2019-02-06T06:22:16.231Z,20.00
2019-02-06T06:24:45.200Z,21.05
2019-02-06T06:27:14.407Z,21.80
2019-02-06T06:29:43.350Z,20.95
2019-02-06T06:32:12.581Z,21.30
2019-02-06T06:34:41.908Z,20.17
2019-02-06T06:37:10.961Z,21.82
2019-02-06T06:39:39.964Z,19.80
2019-02-06T06:42:08.960Z,21.15
2019-02-06T06:44:39.016Z,20.80
2019-02-06T06:47:08.004Z,23.22
2019-02-06T06:49:37.701Z,23.42
2019-02-06T06:52:06.714Z,23.15
2019-02-06T06:54:35.568Z,21.97
2019-02-06T06:57:04.536Z,22.05
2019-02-06T06:59:33.545Z,21.85
2019-02-06T07:02:02.470Z,21.87
2019-02-06T07:04:31.383Z,22.80
2019-02-06T07:07:00.883Z,20.82
2019-02-06T07:09:29.748Z,20.32
2019-02-06T07:11:58.812Z,21.17
2019-02-06T07:14:27.633Z,21.93
2019-02-06T07:16:56.592Z,21.20
2019-02-06T07:19:25.388Z,22.90
2019-02-06T07:21:54.768Z,22.85
2019-02-06T07:24:23.754Z,21.45
2019-02-06T07:26:52.772Z,21.55
2019-02-06T07:29:21.752Z,24.00
2019-02-06T07:31:50.680Z,22.30
2019-02-06T07:34:19.592Z,22.65
2019-02-06T07:36:48.893Z,23.60
2019-02-06T07:39:17.758Z,21.60
2019-02-06T07:41:46.701Z,22.95
2019-02-06T07:44:15.605Z,22.48
2019-02-06T07:46:44.536Z,22.62
2019-02-06T07:49:13.352Z,22.77
2019-02-06T07:51:42.166Z,22.45
2019-02-06T07:54:10.988Z,23.00
2019-02-06T07:56:39.897Z,21.90
2019-02-06T07:59:08.805Z,22.10
2019-02-06T08:01:37.788Z,22.15
2019-02-06T08:04:06.672Z,22.13
2019-02-06T08:06:35.553Z,22.17
2019-02-06T08:09:08.544Z,21.85
2019-02-06T08:11:37.692Z,22.52
2019-02-06T08:14:06.500Z,24.20
2019-02-06T08:16:35.529Z,22.95
2019-02-06T08:19:04.686Z,25.77
2019-02-06T08:21:33.698Z,24.92
2019-02-06T08:24:03.272Z,23.32
2019-02-06T08:26:32.280Z,26.55
2019-02-06T08:29:01.198Z,24.20
2019-02-06T08:31:30.117Z,25.00
2019-02-06T08:33:59.036Z,25.48
2019-02-06T08:36:28.264Z,25.45
2019-02-06T08:38:57.816Z,26.75
2019-02-06T08:41:26.740Z,27.85
2019-02-06T08:43:55.728Z,26.42
2019-02-06T08:46:24.927Z,27.07
2019-02-06T08:48:54.097Z,27.50
2019-02-06T08:51:23.024Z,29.85
2019-02-06T08:53:51.806Z,28.90
2019-02-06T08:56:20.688Z,26.60
2019-02-06T08:58:49.650Z,27.17
2019-02-06T09:01:18.900Z,29.35
2019-02-06T09:03:47.796Z,29.45
2019-02-06T09:06:16.698Z,29.67
2019-02-06T09:08:45.624Z,30.35
2019-02-06T09:11:14.933Z,30.68
2019-02-06T09:13:43.903Z,31.23
2019-02-06T09:16:13.060Z,32.53
2019-02-06T09:18:41.868Z,31.50
2019-02-06T09:21:11.152Z,30.92
2019-02-06T09:23:40.232Z,29.60
2019-02-06T09:26:09.592Z,32.05
2019-02-06T09:28:38.480Z,31.27
2019-02-06T09:31:07.472Z,30.10
2019-02-06T09:33:36.373Z,30.15
2019-02-06T09:36:05.324Z,30.82
2019-02-06T09:38:34.242Z,30.10
2019-02-06T09:41:03.241Z,29.27
2019-02-06T09:43:32.132Z,28.95
2019-02-06T09:46:01.019Z,31.75
2019-02-06T09:48:30.267Z,30.43
2019-02-06T09:50:59.260Z,30.82
2019-02-06T09:53:28.256Z,31.17
2019-02-06T09:55:57.248Z,31.52
2019-02-06T09:58:26.440Z,30.37
2019-02-06T10:00:55.348Z,32.03
2019-02-06T10:03:24.300Z,31.90
2019-02-06T10:05:53.256Z,30.17
2019-02-06T10:08:22.345Z,31.73
2019-02-06T10:10:51.224Z,31.87
2019-02-06T10:13:20.092Z,33.63
2019-02-06T10:15:49.062Z,32.45
2019-02-06T10:18:18.040Z,32.03
2019-02-06T10:20:49.528Z,31.00
2019-02-06T10:23:18.796Z,31.37
2019-02-06T10:25:48.100Z,33.65
2019-02-06T10:28:17.204Z,34.00
2019-02-06T10:30:50.968Z,31.00
2019-02-06T10:33:20.050Z,31.40
2019-02-06T10:35:51.930Z,32.10
2019-02-06T10:38:20.064Z,32.23
2019-02-06T10:40:48.946Z,30.70
2019-02-06T10:43:18.472Z,33.18
2019-02-06T10:45:47.296Z,32.38
2019-02-06T10:48:17.232Z,32.05
2019-02-06T10:50:48.507Z,32.17
2019-02-06T10:53:17.380Z,31.70
2019-02-06T10:55:46.392Z,32.17
2019-02-06T10:58:15.375Z,33.02
2019-02-06T11:00:47.521Z,30.27
2019-02-06T11:03:17.201Z,32.40
2019-02-06T11:05:46.373Z,33.05
2019-02-06T11:08:15.356Z,31.93
2019-02-06T11:10:44.465Z,33.58
2019-02-06T11:13:14.064Z,31.95
2019-02-06T11:15:43.006Z,33.30
2019-02-06T11:18:11.993Z,33.60
2019-02-06T11:20:41.021Z,33.75
2019-02-06T11:23:10.526Z,31.30
2019-02-06T11:25:39.493Z,33.50
2019-02-06T11:28:08.772Z,30.95
2019-02-06T11:30:38.425Z,33.33
2019-02-06T11:33:08.240Z,32.95
2019-02-06T11:35:37.663Z,33.25
2019-02-06T11:38:07.398Z,34.50
2019-02-06T11:40:36.802Z,32.60
2019-02-06T11:43:06.603Z,31.17
2019-02-06T11:45:35.898Z,31.50
2019-02-06T11:48:05.865Z,32.83
2019-02-06T11:50:38.404Z,32.10
2019-02-06T11:53:12.421Z,37.87
2019-02-06T11:55:41.419Z,32.43
2019-02-06T11:58:10.888Z,32.20
2019-02-06T12:00:56.042Z,32.15
2019-02-06T12:03:25.040Z,31.90
2019-02-06T12:05:54.012Z,32.33
2019-02-06T12:08:23.152Z,30.93
2019-02-06T12:10:52.468Z,31.50
2019-02-06T12:13:21.497Z,33.60
2019-02-06T12:15:50.576Z,31.40
2019-02-06T12:18:19.568Z,25.07
2019-02-06T12:20:48.741Z,30.90
2019-02-06T12:23:17.632Z,30.50
2019-02-06T12:25:47.092Z,31.77
2019-02-06T12:28:16.496Z,29.87
2019-02-06T12:30:45.512Z,30.50
2019-02-06T12:33:14.335Z,33.93
2019-02-06T12:35:43.252Z,32.73
2019-02-06T12:38:12.461Z,32.23
2019-02-06T12:40:41.364Z,32.60
2019-02-06T12:43:10.709Z,31.47
2019-02-06T12:45:40.316Z,31.63
2019-02-06T12:48:09.752Z,31.77
2019-02-06T12:50:38.724Z,27.80
2019-02-06T12:53:07.808Z,29.67
2019-02-06T12:55:37.922Z,31.77
2019-02-06T12:58:07.841Z,31.80
2019-02-06T13:00:38.396Z,32.10
2019-02-06T13:03:07.674Z,30.20
2019-02-06T13:05:36.633Z,30.17
2019-02-06T13:08:06.297Z,30.23
2019-02-06T13:10:35.257Z,30.53
2019-02-06T13:13:04.888Z,30.30
2019-02-06T13:15:34.240Z,30.87
2019-02-06T13:18:03.121Z,31.23
2019-02-06T13:20:32.182Z,29.03
2019-02-06T13:23:01.038Z,29.90
2019-02-06T13:25:29.985Z,30.60
2019-02-06T13:27:59.012Z,29.17
2019-02-06T13:30:30.428Z,29.90
2019-02-06T13:32:59.776Z,30.80
2019-02-06T13:35:28.676Z,29.93
2019-02-06T13:37:57.656Z,29.03
2019-02-06T13:40:27.832Z,28.27
2019-02-06T13:42:57.104Z,28.67
2019-02-06T13:45:28.789Z,28.90
2019-02-06T13:47:58.073Z,28.67
2019-02-06T13:50:28.154Z,28.83
2019-02-06T13:52:57.140Z,26.00
2019-02-06T13:55:26.402Z,26.67
2019-02-06T13:57:55.443Z,27.53
2019-02-06T14:00:27.761Z,26.57
2019-02-06T14:02:56.740Z,27.67
2019-02-06T14:05:27.723Z,26.43
2019-02-06T14:07:59.244Z,27.30
2019-02-06T14:10:28.953Z,27.33
2019-02-06T14:12:58.122Z,28.60
2019-02-06T14:15:29.412Z,25.40
2019-02-06T14:17:58.415Z,25.17
2019-02-06T14:20:27.951Z,27.17
2019-02-06T14:23:00.104Z,26.13
2019-02-06T14:26:14.258Z,26.90
2019-02-06T14:29:18.507Z,30.17
2019-02-06T14:32:28.644Z,25.47
2019-02-06T14:35:24.185Z,28.90
2019-02-06T14:38:52.164Z,26.93
2019-02-06T14:41:45.192Z,28.20
2019-02-06T14:44:30.280Z,27.20
2019-02-06T14:47:29.272Z,25.10
2019-02-06T14:50:05.708Z,26.43
2019-02-06T14:53:15.434Z,27.03
2019-02-06T14:56:19.477Z,25.43
2019-02-06T14:59:15.117Z,26.70
2019-02-06T15:02:40.391Z,28.40
2019-02-06T15:06:02.528Z,25.90
2019-02-06T15:09:15.344Z,24.40
2019-02-06T15:12:04.397Z,25.10
2019-02-06T15:14:57.917Z,26.33
2019-02-06T15:18:16.944Z,23.50
2019-02-06T15:21:35.945Z,24.70
2019-02-06T15:24:54.866Z,22.97
2019-02-06T15:28:01.064Z,25.53
2019-02-06T15:31:06.442Z,28.00
2019-02-06T15:33:53.425Z,26.30
2019-02-06T15:36:38.593Z,24.37
2019-02-06T15:39:45.064Z,21.87
2019-02-06T15:43:00.227Z,21.57
2019-02-06T15:45:51.269Z,23.40
2019-02-06T15:48:44.388Z,22.53
2019-02-06T15:51:50.052Z,22.17
2019-02-06T15:55:14.365Z,23.67
2019-02-06T15:58:17.131Z,22.77
2019-02-06T16:01:34.258Z,23.00
2019-02-06T16:04:43.690Z,23.90
2019-02-06T16:07:37.297Z,26.07
2019-02-06T16:10:32.960Z,25.27
2019-02-06T16:13:38.904Z,23.80
2019-02-06T16:16:44.177Z,24.10
2019-02-06T16:19:34.393Z,24.50
2019-02-06T16:22:25.476Z,25.27
2019-02-06T16:25:18.353Z,25.27
2019-02-06T16:28:37.921Z,27.77
2019-02-06T16:31:35.177Z,27.80
2019-02-06T16:34:38.332Z,26.63
2019-02-06T16:37:23.876Z,26.77
2019-02-06T16:40:30.629Z,27.70
2019-02-06T16:43:13.024Z,26.53
2019-02-06T16:46:21.651Z,28.07
2019-02-06T16:49:11.006Z,27.47
2019-02-06T16:51:55.999Z,28.50
2019-02-06T16:55:15.288Z,28.00
2019-02-06T16:58:15.825Z,34.17
2019-02-06T17:01:37.000Z,33.00
2019-02-06T17:04:30.519Z,30.73
2019-02-06T17:07:23.571Z,30.80
2019-02-06T17:10:27.065Z,27.43
2019-02-06T17:13:23.474Z,33.57
2019-02-06T17:16:20.612Z,33.47
2019-02-06T17:19:23.367Z,34.77
2019-02-06T17:22:28.272Z,30.33
2019-02-06T17:25:16.511Z,29.20
2019-02-06T17:28:12.056Z,30.10
2019-02-06T17:31:14.004Z,31.37
2019-02-06T17:34:00.820Z,30.97
2019-02-06T17:37:12.657Z,30.00
2019-02-06T17:40:16.797Z,29.07
2019-02-06T17:43:26.616Z,28.77
2019-02-06T17:46:11.896Z,35.58
2019-02-06T17:49:38.416Z,40.80
2019-02-06T17:52:38.856Z,38.35
2019-02-06T17:55:16.286Z,37.73
2019-02-06T17:57:46.000Z,36.93
2019-02-06T18:00:48.208Z,50.75
2019-02-06T18:03:17.341Z,41.10
2019-02-06T18:05:47.446Z,35.10
2019-02-06T18:08:16.829Z,63.90
2019-02-06T18:10:46.519Z,53.20
2019-02-06T18:13:16.940Z,37.65
2019-02-06T18:15:46.580Z,47.10
2019-02-06T18:18:16.190Z,52.70
2019-02-06T18:20:45.545Z,46.17
2019-02-06T18:23:14.538Z,44.40
2019-02-06T18:25:43.772Z,43.60
2019-02-06T18:28:13.573Z,45.28
2019-02-06T18:30:42.744Z,50.65
2019-02-06T18:33:13.224Z,47.45
2019-02-06T18:35:42.465Z,43.87
2019-02-06T18:38:11.858Z,41.25
2019-02-06T18:40:42.485Z,37.83
2019-02-06T18:43:11.652Z,39.25
2019-02-06T18:45:40.650Z,38.53
2019-02-06T18:48:10.613Z,39.20
2019-02-06T18:50:40.312Z,37.67
2019-02-06T18:53:09.809Z,36.90
2019-02-06T18:55:39.365Z,40.20
2019-02-06T18:58:09.732Z,39.15
2019-02-06T19:00:39.133Z,37.53
2019-02-06T19:03:18.554Z,35.03
2019-02-06T19:05:48.215Z,35.17
2019-02-06T19:08:17.614Z,34.13
2019-02-06T19:10:47.224Z,36.80
2019-02-06T19:13:16.488Z,36.08
2019-02-06T19:15:55.931Z,37.53
2019-02-06T19:18:25.511Z,39.10
2019-02-06T19:20:54.557Z,36.70
2019-02-06T19:23:23.532Z,37.05
2019-02-06T19:25:52.871Z,34.83
2019-02-06T19:28:21.896Z,37.58
2019-02-06T19:30:51.124Z,46.30
2019-02-06T19:33:19.928Z,48.02
2019-02-06T19:35:48.917Z,42.58
2019-02-06T19:38:18.208Z,43.40
2019-02-06T19:40:47.160Z,42.38
2019-02-06T19:43:16.408Z,42.25
2019-02-06T19:45:45.505Z,39.00
2019-02-06T19:48:16.389Z,43.73
2019-02-06T19:50:45.457Z,38.67
2019-02-06T19:53:14.539Z,39.03
2019-02-06T19:55:43.596Z,40.17
2019-02-06T19:58:12.568Z,40.78
2019-02-06T20:00:41.544Z,37.63
2019-02-06T20:03:10.565Z,38.02
2019-02-06T20:05:39.610Z,39.58
2019-02-06T20:08:09.665Z,49.33
2019-02-06T20:10:41.218Z,40.52
2019-02-06T20:13:13.861Z,42.03
2019-02-06T20:15:41.039Z,41.10
2019-02-06T20:18:10.748Z,39.90
2019-02-06T20:20:39.738Z,52.10
2019-02-06T20:23:08.618Z,41.95
2019-02-06T20:25:37.626Z,39.58
2019-02-06T20:28:06.636Z,40.05
2019-02-06T20:30:35.633Z,37.40
2019-02-06T20:33:06.256Z,38.20
2019-02-06T20:35:54.829Z,40.73
2019-02-06T20:38:23.900Z,38.55
2019-02-06T20:40:52.880Z,38.95
2019-02-06T20:43:22.502Z,38.83
2019-02-06T20:45:51.492Z,38.98
2019-02-06T20:48:20.961Z,39.80
2019-02-06T20:50:51.518Z,38.05
2019-02-06T20:53:20.353Z,36.80
2019-02-06T20:55:49.272Z,42.58
2019-02-06T20:58:18.432Z,42.70
2019-02-06T21:00:47.493Z,41.55
2019-02-06T21:03:16.608Z,42.27
2019-02-06T21:05:45.876Z,43.30
2019-02-06T21:08:15.231Z,39.90
2019-02-06T21:10:44.120Z,37.63
2019-02-06T21:13:13.017Z,40.65
2019-02-06T21:15:42.339Z,38.13
2019-02-06T21:18:11.365Z,36.03
2019-02-06T21:20:40.918Z,35.25
2019-02-06T21:23:09.932Z,37.83
2019-02-06T21:25:38.844Z,34.08
2019-02-06T21:28:07.880Z,32.73
2019-02-06T21:30:37.527Z,34.85
2019-02-06T21:33:06.719Z,34.30
2019-02-06T21:35:35.624Z,33.42
2019-02-06T21:38:05.292Z,34.50
2019-02-06T21:40:35.007Z,37.10
2019-02-06T21:43:05.141Z,34.58
2019-02-06T21:45:34.755Z,36.80
2019-02-06T21:48:04.036Z,34.75
2019-02-06T21:50:33.340Z,34.40
2019-02-06T21:53:02.248Z,35.78
2019-02-06T21:55:31.148Z,34.53
2019-02-06T21:58:00.120Z,35.40
2019-02-06T22:00:31.128Z,34.10
2019-02-06T22:03:00.124Z,34.38
2019-02-06T22:05:29.090Z,32.70
2019-02-06T22:07:58.105Z,35.15
2019-02-06T22:10:27.168Z,35.17
2019-02-06T22:12:56.244Z,36.77
2019-02-06T22:15:26.430Z,37.33
2019-02-06T22:17:55.448Z,36.35
2019-02-06T22:20:25.251Z,35.85
2019-02-06T22:22:54.301Z,35.75
2019-02-06T22:25:23.444Z,37.48
2019-02-06T22:27:52.648Z,37.03
2019-02-06T22:30:26.400Z,36.35
2019-02-06T22:32:55.880Z,36.28
2019-02-06T22:35:25.426Z,35.98
2019-02-06T22:37:54.632Z,36.73
2019-02-06T22:40:24.192Z,34.48
2019-02-06T22:42:53.200Z,35.38
2019-02-06T22:45:24.393Z,33.48
2019-02-06T22:47:53.680Z,35.33
2019-02-06T22:50:24.750Z,32.13
2019-02-06T22:52:53.784Z,32.45
2019-02-06T22:55:23.020Z,32.38
2019-02-06T22:57:51.808Z,33.53
2019-02-06T23:00:58.476Z,34.30
2019-02-06T23:03:36.471Z,30.65
2019-02-06T23:06:06.854Z,34.20
2019-02-06T23:08:35.809Z,30.80
2019-02-06T23:11:05.376Z,33.55
2019-02-06T23:13:34.348Z,32.23
2019-02-06T23:16:03.564Z,29.85
2019-02-06T23:18:32.780Z,30.92
2019-02-06T23:21:01.768Z,31.17
2019-02-06T23:23:30.747Z,30.27
2019-02-06T23:25:59.637Z,29.42
2019-02-06T23:28:28.556Z,31.05
2019-02-06T23:30:57.845Z,29.10
2019-02-06T23:33:26.664Z,29.57
2019-02-06T23:35:55.601Z,31.42
2019-02-06T23:38:24.681Z,31.20
2019-02-06T23:40:53.673Z,30.95
2019-02-06T23:43:22.664Z,29.92
2019-02-06T23:45:51.528Z,33.25
2019-02-06T23:48:21.072Z,31.80
2019-02-06T23:50:50.181Z,31.60
2019-02-06T23:53:19.152Z,32.60
2019-02-06T23:55:48.005Z,33.48
2019-02-06T23:58:17.120Z,32.38
